Time;durP1;ratioP1;P1;durP2;ratioP2;P2;SDS_P1;SDS_P2;PMS_P1;PMS_P2;Temp;Humidity;BMP_temperature;BMP_pressure;BME280_temperature;BME280_humidity;BME280_pressure;Samples;Min_cycle;Max_cycle;Signal;HPM_P1;HPM_P2
2021/03/11 00:02:08;;;;;;;5.73;3.60;;;6.40;99.90;;;;;;4975243;28;20196;-80
2021/03/11 00:04:33;;;;;;;5.87;4.00;;;6.40;99.90;;;;;;4977290;28;20625;-80
2021/03/11 00:06:59;;;;;;;5.90;3.30;;;6.40;99.90;;;;;;4980512;28;20216;-80
2021/03/11 00:09:25;;;;;;;7.33;4.43;;;6.50;99.90;;;;;;4980861;28;20216;-78
2021/03/11 00:11:50;;;;;;;6.27;4.03;;;6.50;99.90;;;;;;4976496;28;20254;-78
2021/03/11 00:14:16;;;;;;;5.17;3.07;;;6.50;99.90;;;;;;4977949;28;20287;-79
2021/03/11 00:16:42;;;;;;;5.47;3.10;;;6.40;99.90;;;;;;4976084;28;20926;-80
2021/03/11 00:19:07;;;;;;;5.53;4.23;;;6.30;99.90;;;;;;4979170;28;20185;-80
2021/03/11 00:21:33;;;;;;;5.40;4.10;;;6.30;99.90;;;;;;4976380;28;20196;-80
2021/03/11 00:23:59;;;;;;;7.00;4.67;;;6.30;99.90;;;;;;4979898;28;20246;-79
2021/03/11 00:26:24;;;;;;;6.97;4.00;;;6.20;99.90;;;;;;4979769;28;20207;-79
2021/03/11 00:28:50;;;;;;;6.70;3.60;;;6.10;99.90;;;;;;4980560;28;20192;-80
2021/03/11 00:31:15;;;;;;;6.30;4.47;;;6.10;99.90;;;;;;4996284;28;20750;-79
2021/03/11 00:33:41;;;;;;;4.60;3.67;;;6.10;99.90;;;;;;4979784;28;20215;-79
2021/03/11 00:36:07;;;;;;;5.13;3.50;;;6.20;99.90;;;;;;4983947;28;20195;-79
2021/03/11 00:38:32;;;;;;;4.83;3.93;;;6.00;99.90;;;;;;4981336;28;20285;-79
2021/03/11 00:40:58;;;;;;;6.53;3.87;;;5.90;99.90;;;;;;4979163;28;20683;-78
2021/03/11 00:43:23;;;;;;;5.37;3.53;;;5.90;99.90;;;;;;4978143;28;20204;-78
2021/03/11 00:45:49;;;;;;;4.07;2.50;;;5.90;99.90;;;;;;4979203;28;20671;-79
2021/03/11 00:48:15;;;;;;;5.30;3.83;;;5.90;99.90;;;;;;4980150;28;20185;-80
2021/03/11 00:50:41;;;;;;;5.73;3.87;;;5.80;99.90;;;;;;4980767;28;20908;-78
2021/03/11 00:53:06;;;;;;;5.47;3.20;;;5.80;99.90;;;;;;4977394;28;20204;-78
2021/03/11 00:55:32;;;;;;;6.10;3.27;;;5.80;99.90;;;;;;4979365;28;20250;-79
2021/03/11 00:57:58;;;;;;;5.17;3.87;;;5.70;99.90;;;;;;4980377;28;20189;-79
2021/03/11 01:00:24;;;;;;;4.63;3.17;;;5.70;99.90;;;;;;4978414;28;20583;-79
2021/03/11 01:02:50;;;;;;;4.03;2.90;;;5.70;99.90;;;;;;4982146;28;20291;-79
2021/03/11 01:05:27;;;;;;;5.07;3.27;;;5.70;99.90;;;;;;4979968;28;20193;-80
2021/03/11 01:07:52;;;;;;;5.43;3.40;;;5.60;99.90;;;;;;4994882;28;20217;-80
2021/03/11 01:10:18;;;;;;;4.67;3.07;;;5.70;99.90;;;;;;4978867;28;20714;-79
2021/03/11 01:12:44;;;;;;;4.83;3.47;;;5.60;99.90;;;;;;4981702;28;20231;-80
2021/03/11 01:15:10;;;;;;;4.10;3.37;;;5.70;99.90;;;;;;4980420;28;20193;-79
2021/03/11 01:17:37;;;;;;;4.20;2.70;;;5.60;99.90;;;;;;4978019;28;20199;-78
2021/03/11 01:20:13;;;;;;;3.90;2.87;;;5.60;99.90;;;;;;4979402;28;20188;-80
2021/03/11 01:22:39;;;;;;;2.90;2.30;;;5.60;99.90;;;;;;5010744;28;20720;-80
2021/03/11 01:25:05;;;;;;;3.43;2.77;;;5.60;99.90;;;;;;4995268;28;20196;-78
2021/03/11 01:27:32;;;;;;;4.13;2.23;;;5.60;99.90;;;;;;4980771;28;20212;-80
2021/03/11 01:29:58;;;;;;;2.70;2.10;;;5.60;99.90;;;;;;4978192;28;20295;-78
2021/03/11 01:32:24;;;;;;;3.03;2.50;;;5.60;99.90;;;;;;4978145;28;20819;-78
2021/03/11 01:34:49;;;;;;;4.60;3.00;;;5.50;99.90;;;;;;4979074;28;20180;-78
2021/03/11 01:37:15;;;;;;;3.87;2.30;;;5.60;99.90;;;;;;4978065;28;20199;-80
2021/03/11 01:39:40;;;;;;;3.87;2.93;;;5.60;99.90;;;;;;4978567;28;20200;-80
2021/03/11 01:42:06;;;;;;;2.67;2.10;;;5.60;99.90;;;;;;4978493;28;20197;-78
2021/03/11 01:44:32;;;;;;;3.00;2.30;;;5.60;99.90;;;;;;4980210;28;20215;-81
2021/03/11 01:46:57;;;;;;;2.97;2.17;;;5.50;99.90;;;;;;4977447;28;20231;-80
2021/03/11 01:49:23;;;;;;;3.57;2.73;;;5.50;99.90;;;;;;4978707;28;20532;-78
2021/03/11 01:51:50;;;;;;;3.57;2.40;;;5.50;99.90;;;;;;4978789;28;20239;-80
2021/03/11 01:54:18;;;;;;;2.73;2.07;;;5.40;99.90;;;;;;4993946;28;20215;-78
2021/03/11 01:56:45;;;;;;;3.33;2.50;;;5.50;99.90;;;;;;4978425;28;20222;-79
2021/03/11 01:59:11;;;;;;;2.70;2.40;;;5.50;99.90;;;;;;4979021;28;20270;-79
2021/03/11 02:01:37;;;;;;;1.67;1.57;;;5.50;99.90;;;;;;4979779;28;20614;-79
2021/03/11 02:04:02;;;;;;;2.67;2.33;;;5.40;99.90;;;;;;4976972;28;20219;-79
2021/03/11 02:06:28;;;;;;;3.50;2.00;;;5.40;99.90;;;;;;4981127;28;20215;-79
2021/03/11 02:08:53;;;;;;;2.07;1.87;;;5.40;99.90;;;;;;4979767;28;20189;-80
2021/03/11 02:11:25;;;;;;;2.73;1.77;;;5.30;99.90;;;;;;4977846;28;20188;-78
2021/03/11 02:13:55;;;;;;;2.47;2.13;;;5.40;99.90;;;;;;4978094;28;20634;-81
2021/03/11 02:16:55;;;;;;;2.83;2.17;;;5.40;99.90;;;;;;4977798;28;20220;-79
2021/03/11 02:19:39;;;;;;;3.17;2.40;;;5.40;99.90;;;;;;5011267;28;20197;-78
2021/03/11 02:22:17;;;;;;;2.93;2.10;;;5.40;99.90;;;;;;4978850;28;20188;-80
2021/03/11 02:25:06;;;;;;;3.80;2.33;;;5.50;99.90;;;;;;4978468;28;20215;-78
2021/03/11 02:28:10;;;;;;;2.27;1.97;;;5.40;99.90;;;;;;4977695;28;20251;-78
2021/03/11 02:30:36;;;;;;;4.03;3.30;;;5.30;99.90;;;;;;4976542;28;20378;-80
2021/03/11 02:33:04;;;;;;;2.80;2.53;;;5.40;99.90;;;;;;4977766;28;20211;-79
2021/03/11 02:35:31;;;;;;;2.60;2.27;;;5.50;99.90;;;;;;4979168;28;20251;-78
2021/03/11 02:37:58;;;;;;;3.97;2.93;;;5.50;99.90;;;;;;4978713;28;20231;-79
2021/03/11 02:40:30;;;;;;;3.70;2.80;;;5.50;99.90;;;;;;4991794;28;20189;-78
2021/03/11 02:42:58;;;;;;;3.33;2.40;;;5.50;99.90;;;;;;4978315;28;20247;-78
2021/03/11 02:45:29;;;;;;;4.07;2.50;;;5.30;99.90;;;;;;4976582;28;20189;-78
2021/03/11 02:47:58;;;;;;;3.53;2.50;;;5.30;99.90;;;;;;4977871;28;20237;-78
2021/03/11 02:50:24;;;;;;;4.17;2.67;;;5.20;99.90;;;;;;4977421;28;20215;-78
2021/03/11 02:52:51;;;;;;;3.60;2.30;;;5.30;99.90;;;;;;4977413;28;20208;-78
2021/03/11 02:55:18;;;;;;;2.93;2.33;;;5.20;99.90;;;;;;4978534;28;20191;-78
2021/03/11 02:57:44;;;;;;;4.13;3.07;;;5.20;99.90;;;;;;4978062;28;20342;-80
2021/03/11 03:00:11;;;;;;;3.97;2.87;;;5.30;99.90;;;;;;4975621;28;20747;-78
2021/03/11 03:02:41;;;;;;;4.03;3.07;;;5.30;99.90;;;;;;4974556;28;20227;-78
2021/03/11 03:05:08;;;;;;;2.90;2.33;;;5.40;99.90;;;;;;4974885;28;20193;-80
2021/03/11 03:07:38;;;;;;;3.80;2.87;;;5.40;99.90;;;;;;4991253;28;20294;-80
2021/03/11 03:10:05;;;;;;;3.47;2.50;;;5.40;99.90;;;;;;5007430;28;20559;-79
2021/03/11 03:12:34;;;;;;;2.97;2.37;;;5.60;99.90;;;;;;5009762;28;20550;-78
2021/03/11 03:15:00;;;;;;;2.67;2.10;;;5.60;99.90;;;;;;4991951;28;20195;-79
2021/03/11 03:17:26;;;;;;;4.70;3.13;;;5.70;99.90;;;;;;4976151;28;21170;-80
2021/03/11 03:19:52;;;;;;;3.40;2.33;;;5.70;99.90;;;;;;4976405;28;20196;-80
2021/03/11 03:22:20;;;;;;;4.80;2.20;;;5.70;99.90;;;;;;5007746;28;20255;-80
2021/03/11 03:24:47;;;;;;;3.80;2.97;;;5.80;99.90;;;;;;4974727;28;20219;-79
2021/03/11 03:27:14;;;;;;;2.80;2.07;;;5.80;99.90;;;;;;4977512;28;20215;-80
2021/03/11 03:29:41;;;;;;;3.07;2.23;;;5.90;99.90;;;;;;4978354;28;20188;-78
2021/03/11 03:32:07;;;;;;;4.30;3.00;;;5.80;99.90;;;;;;5008773;28;20189;-78
2021/03/11 03:34:33;;;;;;;5.33;2.87;;;5.90;99.90;;;;;;4978363;28;20204;-78
2021/03/11 03:36:59;;;;;;;4.23;3.10;;;5.90;99.90;;;;;;4976763;28;20658;-80
2021/03/11 03:39:25;;;;;;;2.37;1.83;;;5.90;99.90;;;;;;4977847;28;20239;-80
2021/03/11 03:41:52;;;;;;;3.87;2.77;;;5.80;99.90;;;;;;4975938;28;20197;-80
2021/03/11 03:44:21;;;;;;;4.13;2.80;;;6.00;99.90;;;;;;4976972;28;20208;-78
2021/03/11 03:46:47;;;;;;;2.53;2.23;;;5.90;99.90;;;;;;4976883;28;20228;-78
2021/03/11 03:49:14;;;;;;;3.80;2.30;;;5.90;99.90;;;;;;4992971;28;20200;-78
2021/03/11 03:51:45;;;;;;;3.90;2.70;;;6.00;99.90;;;;;;4977906;28;20208;-78
2021/03/11 03:54:20;;;;;;;3.47;2.67;;;6.00;99.90;;;;;;4978169;28;20204;-78
2021/03/11 03:57:00;;;;;;;3.33;3.00;;;6.00;99.90;;;;;;4991913;28;20184;-78
2021/03/11 03:59:34;;;;;;;3.07;2.60;;;6.00;99.90;;;;;;4975824;28;20277;-79
2021/03/11 04:02:04;;;;;;;4.20;2.80;;;5.90;99.90;;;;;;4975530;28;20615;-79
2021/03/11 04:04:33;;;;;;;2.23;1.83;;;5.90;99.90;;;;;;4976848;28;20305;-78
2021/03/11 04:07:01;;;;;;;2.93;2.63;;;5.90;99.90;;;;;;4973566;28;20252;-79
2021/03/11 04:09:28;;;;;;;2.97;2.13;;;5.90;99.90;;;;;;4977656;28;20227;-78
2021/03/11 04:11:54;;;;;;;3.57;2.80;;;6.00;99.90;;;;;;4976541;28;20184;-78
2021/03/11 04:14:21;;;;;;;4.67;3.00;;;6.00;99.90;;;;;;4974733;28;20197;-79
2021/03/11 04:16:48;;;;;;;5.23;2.60;;;6.00;99.90;;;;;;4976678;28;20220;-79
2021/03/11 04:19:14;;;;;;;3.43;2.60;;;6.00;99.90;;;;;;4976446;28;20207;-80
2021/03/11 04:21:41;;;;;;;4.67;2.93;;;6.00;99.90;;;;;;4976576;28;20818;-78
2021/03/11 04:24:08;;;;;;;3.20;2.50;;;6.00;99.90;;;;;;5006372;28;20204;-78
2021/03/11 04:26:36;;;;;;;2.60;2.10;;;6.20;99.90;;;;;;4971786;28;20338;-78
2021/03/11 04:29:02;;;;;;;3.80;2.57;;;6.20;99.90;;;;;;4974888;28;20180;-78
2021/03/11 04:31:28;;;;;;;3.77;2.37;;;6.20;99.90;;;;;;4977452;28;20547;-80
2021/03/11 04:33:56;;;;;;;4.07;2.67;;;6.30;99.90;;;;;;4975579;28;20204;-81
2021/03/11 04:36:23;;;;;;;3.27;2.43;;;6.30;99.90;;;;;;4970366;28;20939;-78
2021/03/11 04:38:50;;;;;;;3.37;2.13;;;6.30;99.90;;;;;;4975567;28;20219;-79
2021/03/11 04:41:16;;;;;;;3.23;2.53;;;6.30;99.90;;;;;;4964196;28;20691;-78
2021/03/11 04:43:43;;;;;;;2.60;2.00;;;6.30;99.90;;;;;;4969072;28;20514;-81
2021/03/11 04:46:08;;;;;;;4.07;2.70;;;6.40;99.90;;;;;;4969802;28;20211;-81
2021/03/11 04:48:34;;;;;;;3.57;2.43;;;6.40;99.90;;;;;;4972909;28;20177;-79
2021/03/11 04:51:05;;;;;;;3.50;2.13;;;6.30;99.90;;;;;;4969571;28;20366;-79
2021/03/11 04:53:32;;;;;;;3.03;1.83;;;6.30;99.90;;;;;;4966169;28;20724;-81
2021/03/11 04:55:59;;;;;;;4.87;2.67;;;6.40;99.90;;;;;;4978973;28;20272;-79
2021/03/11 04:58:25;;;;;;;3.33;2.50;;;6.30;99.90;;;;;;4968738;28;20177;-79
2021/03/11 05:00:53;;;;;;;3.13;2.33;;;6.30;99.90;;;;;;4967892;28;20242;-81
2021/03/11 05:03:19;;;;;;;3.63;2.50;;;6.30;99.90;;;;;;4972532;28;20215;-80
2021/03/11 05:05:45;;;;;;;3.23;2.00;;;6.20;99.90;;;;;;4969461;28;20181;-81
2021/03/11 05:08:11;;;;;;;3.70;2.20;;;6.20;99.90;;;;;;4965095;28;20247;-80
2021/03/11 05:10:38;;;;;;;4.73;2.40;;;6.20;99.90;;;;;;4968766;28;20485;-79
2021/03/11 05:13:04;;;;;;;3.33;2.47;;;6.20;99.90;;;;;;4971652;28;20860;-80
2021/03/11 05:15:30;;;;;;;5.30;3.20;;;6.10;99.90;;;;;;4983884;28;20258;-79
2021/03/11 05:17:56;;;;;;;3.27;2.50;;;6.20;99.90;;;;;;4971405;28;20212;-79
2021/03/11 05:20:24;;;;;;;3.63;2.77;;;6.20;99.90;;;;;;4997390;28;20219;-80
2021/03/11 05:22:49;;;;;;;3.30;2.23;;;6.10;99.90;;;;;;4988541;28;20204;-79
2021/03/11 05:25:15;;;;;;;3.80;2.20;;;6.20;99.90;;;;;;4970713;28;20252;-80
2021/03/11 05:27:41;;;;;;;3.63;2.60;;;6.30;99.90;;;;;;4968960;28;20212;-79
2021/03/11 05:30:11;;;;;;;4.27;2.60;;;6.20;99.90;;;;;;4970977;28;20235;-79
2021/03/11 05:32:37;;;;;;;4.27;3.00;;;6.20;99.90;;;;;;4968946;28;20295;-79
2021/03/11 05:35:04;;;;;;;3.90;2.50;;;6.30;99.90;;;;;;4965792;28;20181;-80
2021/03/11 05:37:29;;;;;;;3.80;2.70;;;6.30;99.90;;;;;;4968275;28;20651;-78
2021/03/11 05:39:57;;;;;;;4.90;2.80;;;6.40;99.90;;;;;;4973854;28;20187;-79
2021/03/11 05:42:24;;;;;;;3.80;2.63;;;6.50;99.90;;;;;;4970198;28;20172;-78
2021/03/11 05:44:51;;;;;;;4.43;3.30;;;6.60;99.90;;;;;;4969604;28;20181;-79
2021/03/11 05:47:17;;;;;;;4.10;3.10;;;6.70;99.90;;;;;;4971490;28;20565;-80
2021/03/11 05:49:43;;;;;;;3.90;3.20;;;6.70;99.90;;;;;;4990191;28;20211;-79
2021/03/11 05:52:11;;;;;;;4.70;3.57;;;6.80;99.90;;;;;;4968279;28;20613;-78
2021/03/11 05:54:38;;;;;;;6.23;3.27;;;6.80;99.90;;;;;;4971734;28;20630;-79
2021/03/11 05:57:05;;;;;;;5.50;3.13;;;6.80;99.90;;;;;;4971370;28;20196;-79
2021/03/11 05:59:31;;;;;;;6.23;3.27;;;7.00;99.90;;;;;;4970092;28;20236;-78
2021/03/11 06:02:01;;;;;;;3.10;2.63;;;7.00;99.90;;;;;;4970372;28;20223;-80
2021/03/11 06:04:27;;;;;;;4.37;2.73;;;7.10;99.90;;;;;;4972062;28;20212;-80
2021/03/11 06:06:53;;;;;;;4.23;3.30;;;7.00;99.90;;;;;;4969590;28;20294;-78
2021/03/11 06:09:20;;;;;;;3.30;2.57;;;7.00;99.90;;;;;;4977537;28;20201;-80
2021/03/11 06:11:48;;;;;;;2.63;1.93;;;7.00;99.90;;;;;;4973057;28;20187;-80
2021/03/11 06:14:15;;;;;;;5.57;3.03;;;7.10;99.90;;;;;;4976096;28;20626;-80
2021/03/11 06:16:49;;;;;;;3.50;2.47;;;7.10;99.90;;;;;;5001842;28;20311;-79
2021/03/11 06:19:16;;;;;;;4.70;3.23;;;7.10;99.90;;;;;;4977197;28;20197;-80
2021/03/11 06:21:43;;;;;;;3.23;2.87;;;7.10;99.90;;;;;;4971055;28;20193;-79
2021/03/11 06:24:12;;;;;;;4.83;3.00;;;7.10;99.90;;;;;;4969816;28;20239;-80
2021/03/11 06:26:38;;;;;;;3.50;3.07;;;7.10;99.90;;;;;;4977657;28;20917;-80
2021/03/11 06:29:03;;;;;;;3.60;2.30;;;7.00;99.90;;;;;;4971448;28;20323;-79
2021/03/11 06:31:31;;;;;;;3.43;2.53;;;7.00;99.90;;;;;;4971501;28;20181;-79
2021/03/11 06:33:58;;;;;;;4.50;2.77;;;7.10;99.90;;;;;;4979616;28;20208;-78
2021/03/11 06:36:26;;;;;;;3.27;2.60;;;7.20;99.90;;;;;;4975085;28;20196;-79
2021/03/11 06:38:52;;;;;;;4.87;2.30;;;7.20;99.90;;;;;;4970882;28;20517;-78
2021/03/11 06:41:18;;;;;;;2.60;2.13;;;7.30;99.90;;;;;;4968570;28;20642;-79
2021/03/11 06:43:54;;;;;;;4.33;2.50;;;7.30;99.90;;;;;;4967576;28;20647;-79
2021/03/11 06:46:21;;;;;;;2.50;2.07;;;7.30;99.90;;;;;;4975745;28;20211;-81
2021/03/11 06:48:48;;;;;;;3.17;2.43;;;7.30;99.90;;;;;;4970880;28;20662;-80
2021/03/11 06:51:20;;;;;;;2.80;2.20;;;7.30;99.90;;;;;;4969061;28;20614;-79
2021/03/11 06:53:57;;;;;;;2.70;2.20;;;7.40;99.90;;;;;;4971505;28;20300;-80
2021/03/11 06:56:24;;;;;;;4.63;3.13;;;7.30;99.90;;;;;;4968846;28;20564;-79
2021/03/11 06:59:05;;;;;;;3.23;2.33;;;7.30;99.90;;;;;;4977016;28;20758;-80
2021/03/11 07:01:35;;;;;;;2.60;2.10;;;7.40;99.90;;;;;;4968878;28;20593;-79
2021/03/11 07:04:02;;;;;;;2.93;2.00;;;7.40;99.90;;;;;;4969877;28;20662;-79
2021/03/11 07:06:38;;;;;;;2.43;1.83;;;7.40;99.90;;;;;;4965650;28;20205;-81
2021/03/11 07:09:07;;;;;;;3.50;2.60;;;7.50;99.90;;;;;;4965802;28;20596;-79
2021/03/11 07:11:33;;;;;;;3.63;2.47;;;7.40;99.90;;;;;;4970468;28;20190;-78
2021/03/11 07:14:03;;;;;;;3.27;1.90;;;7.40;99.90;;;;;;4968525;28;20213;-82
2021/03/11 07:16:33;;;;;;;6.50;2.43;;;7.50;99.90;;;;;;4975338;28;20188;-80
2021/03/11 07:19:14;;;;;;;2.47;2.03;;;7.50;99.90;;;;;;4969450;28;20240;-81
2021/03/11 07:21:42;;;;;;;3.20;2.60;;;7.50;99.90;;;;;;4970465;28;20250;-80
2021/03/11 07:24:08;;;;;;;3.50;2.57;;;7.50;99.90;;;;;;4970906;28;20371;-80
2021/03/11 07:26:34;;;;;;;1.60;1.40;;;7.50;99.90;;;;;;4974368;28;20205;-80
2021/03/11 07:29:19;;;;;;;2.60;2.13;;;7.60;99.90;;;;;;4968103;28;20192;-82
2021/03/11 07:31:53;;;;;;;2.77;1.83;;;7.60;99.90;;;;;;4969289;28;20180;-80
2021/03/11 07:34:24;;;;;;;4.90;2.97;;;7.70;99.90;;;;;;4970984;28;20208;-79
2021/03/11 07:36:50;;;;;;;3.80;2.67;;;7.70;99.90;;;;;;4969960;28;20906;-81
2021/03/11 07:39:16;;;;;;;2.27;1.80;;;7.70;99.90;;;;;;4974620;28;20185;-78
2021/03/11 07:41:42;;;;;;;2.43;2.00;;;7.60;99.90;;;;;;4971241;28;20213;-82
2021/03/11 07:44:09;;;;;;;3.33;2.17;;;7.60;99.90;;;;;;4970750;28;20215;-81
2021/03/11 07:46:35;;;;;;;2.37;2.17;;;7.60;99.90;;;;;;4979768;28;20208;-80
2021/03/11 07:49:02;;;;;;;4.50;2.43;;;7.60;99.90;;;;;;4990635;28;20196;-80
2021/03/11 07:51:30;;;;;;;3.57;2.00;;;7.60;99.90;;;;;;4977992;28;20211;-81
2021/03/11 07:53:56;;;;;;;3.77;2.53;;;7.70;99.90;;;;;;5003971;28;20259;-79
2021/03/11 07:56:22;;;;;;;2.20;2.00;;;7.80;99.90;;;;;;4966912;28;20209;-80
2021/03/11 07:58:48;;;;;;;2.93;1.60;;;7.80;99.90;;;;;;4971500;28;20254;-81
2021/03/11 08:01:15;;;;;;;5.07;1.87;;;7.80;99.90;;;;;;4968341;28;20192;-78
2021/03/11 08:03:46;;;;;;;2.70;1.90;;;7.90;99.90;;;;;;4964674;28;20724;-79
2021/03/11 08:06:29;;;;;;;2.37;2.10;;;8.00;99.90;;;;;;4982685;28;20197;-80
2021/03/11 08:08:55;;;;;;;2.80;1.77;;;8.00;99.90;;;;;;4972384;28;20653;-80
2021/03/11 08:11:39;;;;;;;2.10;1.60;;;8.10;99.90;;;;;;4971932;28;20185;-79
2021/03/11 08:14:19;;;;;;;1.87;1.60;;;8.10;99.90;;;;;;4974980;28;20204;-79
2021/03/11 08:16:45;;;;;;;2.50;1.73;;;8.10;99.90;;;;;;4986728;28;20714;-77
2021/03/11 08:19:34;;;;;;;1.40;1.10;;;8.20;99.90;;;;;;4971016;28;20351;-78
2021/03/11 08:21:59;;;;;;;1.47;1.10;;;8.40;99.90;;;;;;4968497;28;20283;-79
2021/03/11 08:24:46;;;;;;;2.53;1.97;;;8.40;99.90;;;;;;4970062;28;20319;-78
2021/03/11 08:27:30;;;;;;;1.70;1.17;;;8.50;99.90;;;;;;4964502;28;20217;-79
2021/03/11 08:29:56;;;;;;;1.10;0.90;;;8.40;99.90;;;;;;4978932;28;20521;-79
2021/03/11 08:32:48;;;;;;;1.70;1.30;;;8.50;99.90;;;;;;4973102;28;20331;-78
2021/03/11 08:35:29;;;;;;;2.00;1.53;;;8.40;99.90;;;;;;4973122;28;20189;-81
2021/03/11 08:38:01;;;;;;;1.20;1.10;;;8.60;99.90;;;;;;4966758;28;20192;-80
2021/03/11 08:40:33;;;;;;;2.27;1.20;;;8.60;99.90;;;;;;4974286;28;20246;-79
2021/03/11 08:42:59;;;;;;;1.37;1.17;;;8.70;99.90;;;;;;4969151;28;20675;-79
2021/03/11 08:45:51;;;;;;;2.33;1.80;;;8.80;99.90;;;;;;4970602;28;20215;-80
2021/03/11 08:48:22;;;;;;;1.33;1.20;;;8.80;99.90;;;;;;4970121;28;20247;-80
2021/03/11 08:50:58;;;;;;;3.00;1.13;;;8.80;99.90;;;;;;4978406;28;20211;-79
2021/03/11 08:53:42;;;;;;;1.43;1.30;;;9.00;99.90;;;;;;4967274;28;20212;-80
2021/03/11 08:56:17;;;;;;;1.53;1.13;;;9.00;99.90;;;;;;4970663;28;20181;-78
2021/03/11 08:59:03;;;;;;;1.47;1.07;;;9.00;99.90;;;;;;4972441;28;20619;-80
2021/03/11 09:01:31;;;;;;;1.43;1.17;;;8.80;99.90;;;;;;4969930;28;20544;-80
2021/03/11 09:03:59;;;;;;;1.10;1.00;;;8.80;99.90;;;;;;4970692;28;20215;-79
2021/03/11 09:06:46;;;;;;;2.23;1.43;;;8.90;99.90;;;;;;4975156;28;20563;-81
2021/03/11 09:09:12;;;;;;;2.87;1.20;;;9.00;99.90;;;;;;4969335;28;20231;-81
2021/03/11 09:11:38;;;;;;;1.30;1.10;;;9.10;99.90;;;;;;4977570;28;20275;-81
2021/03/11 09:14:09;;;;;;;2.93;2.00;;;9.20;99.90;;;;;;4971404;28;20209;-79
2021/03/11 09:16:34;;;;;;;1.50;1.40;;;9.30;99.90;;;;;;4970011;28;20185;-81
2021/03/11 09:19:00;;;;;;;1.07;1.00;;;9.30;99.90;;;;;;4974245;28;20200;-80
2021/03/11 09:21:35;;;;;;;0.97;0.93;;;9.20;99.90;;;;;;4970435;28;20222;-78
2021/03/11 09:24:02;;;;;;;2.30;1.07;;;9.50;99.90;;;;;;4970181;28;20686;-78
2021/03/11 09:26:30;;;;;;;1.73;1.40;;;9.80;99.90;;;;;;4972170;28;20286;-80
2021/03/11 09:28:56;;;;;;;1.93;1.43;;;9.90;99.90;;;;;;4967736;28;20572;-80
2021/03/11 09:31:23;;;;;;;2.43;1.47;;;9.90;99.90;;;;;;4970514;28;20183;-81
2021/03/11 09:33:49;;;;;;;1.27;1.00;;;10.10;99.90;;;;;;4979403;28;20207;-80
2021/03/11 09:36:16;;;;;;;1.67;1.10;;;10.40;99.90;;;;;;4973359;28;20651;-80
2021/03/11 09:38:42;;;;;;;0.63;0.63;;;10.60;99.90;;;;;;4972621;28;20185;-79
2021/03/11 09:41:08;;;;;;;1.20;1.10;;;10.60;99.90;;;;;;4969911;28;20239;-78
2021/03/11 09:43:36;;;;;;;0.97;0.73;;;10.60;99.90;;;;;;4973087;28;20193;-78
2021/03/11 09:46:11;;;;;;;1.60;1.20;;;10.50;99.90;;;;;;4978037;28;20195;-80
2021/03/11 09:48:44;;;;;;;0.73;0.73;;;10.50;99.90;;;;;;4974980;28;20209;-78
2021/03/11 09:51:12;;;;;;;0.90;0.73;;;10.60;99.90;;;;;;5006129;28;20701;-80
2021/03/11 09:53:59;;;;;;;1.70;1.23;;;10.60;99.90;;;;;;4974189;28;20640;-78
2021/03/11 09:56:37;;;;;;;1.17;0.93;;;10.60;99.90;;;;;;4971302;28;20187;-81
2021/03/11 09:59:08;;;;;;;0.93;0.80;;;10.60;99.90;;;;;;4973658;28;20187;-80
2021/03/11 10:01:44;;;;;;;1.20;0.80;;;10.90;99.90;;;;;;4972983;28;20184;-78
2021/03/11 10:04:18;;;;;;;1.13;0.70;;;11.30;99.90;;;;;;4992473;28;20331;-81
2021/03/11 10:07:01;;;;;;;1.10;1.00;;;11.60;99.90;;;;;;4974468;28;20342;-81
2021/03/11 10:09:38;;;;;;;1.73;1.07;;;11.50;99.90;;;;;;5012426;28;20176;-79
2021/03/11 10:12:04;;;;;;;1.00;0.80;;;11.70;99.90;;;;;;4977882;28;20204;-81
2021/03/11 10:14:30;;;;;;;0.90;0.70;;;11.80;99.90;;;;;;5008578;28;20688;-82
2021/03/11 10:17:02;;;;;;;1.60;1.03;;;11.70;99.90;;;;;;4974073;28;20188;-81
2021/03/11 10:19:28;;;;;;;1.27;1.00;;;11.50;99.90;;;;;;4976308;28;20188;-80
2021/03/11 10:21:53;;;;;;;0.63;0.63;;;11.60;99.90;;;;;;4977518;28;20624;-81
2021/03/11 10:24:49;;;;;;;1.00;0.60;;;11.70;99.90;;;;;;4977872;28;20741;-80
2021/03/11 10:27:23;;;;;;;1.57;0.97;;;11.70;99.90;;;;;;5009007;28;20217;-79
2021/03/11 10:30:11;;;;;;;1.10;1.00;;;11.90;99.90;;;;;;4976458;28;20191;-79
2021/03/11 10:32:39;;;;;;;0.90;0.90;;;12.10;99.90;;;;;;4975917;28;20320;-78
2021/03/11 10:35:06;;;;;;;0.90;0.80;;;12.10;99.90;;;;;;4976239;28;20181;-79
2021/03/11 10:37:41;;;;;;;0.83;0.73;;;12.00;99.90;;;;;;4991677;28;20686;-80
2021/03/11 10:40:11;;;;;;;1.20;1.10;;;12.10;99.90;;;;;;4974429;28;20181;-81
2021/03/11 10:42:45;;;;;;;0.80;0.80;;;12.30;99.90;;;;;;4975954;28;20593;-81
2021/03/11 10:45:26;;;;;;;1.07;0.83;;;12.40;99.90;;;;;;4974273;28;20191;-81
2021/03/11 10:47:59;;;;;;;2.17;1.00;;;12.10;99.90;;;;;;4977143;28;20217;-81
2021/03/11 10:50:25;;;;;;;1.50;0.80;;;12.00;99.90;;;;;;4976745;28;20217;-80
2021/03/11 10:52:54;;;;;;;0.67;0.67;;;11.70;99.90;;;;;;4974898;28;20247;-80
2021/03/11 10:55:37;;;;;;;1.03;0.87;;;11.60;99.90;;;;;;4977444;28;20173;-81
2021/03/11 10:58:04;;;;;;;1.00;0.80;;;11.40;99.90;;;;;;4992494;28;20665;-81
2021/03/11 11:00:36;;;;;;;0.80;0.70;;;11.30;99.90;;;;;;4976204;28;20191;-78
2021/03/11 11:03:04;;;;;;;1.10;0.80;;;11.20;99.90;;;;;;4975943;28;20304;-81
2021/03/11 11:05:31;;;;;;;1.03;0.73;;;11.10;99.90;;;;;;4974581;28;20249;-81
2021/03/11 11:07:57;;;;;;;0.77;0.70;;;10.90;99.90;;;;;;4976131;28;20208;-79
2021/03/11 11:10:27;;;;;;;2.20;0.80;;;11.00;99.90;;;;;;4990341;28;20181;-81
2021/03/11 11:12:53;;;;;;;0.77;0.60;;;11.10;99.90;;;;;;4975155;28;20293;-81
2021/03/11 11:15:19;;;;;;;1.40;0.93;;;11.20;99.90;;;;;;4975231;28;20186;-80
2021/03/11 11:17:45;;;;;;;1.73;1.13;;;11.40;99.90;;;;;;4975240;28;20184;-81
2021/03/11 11:20:14;;;;;;;0.60;0.60;;;11.50;99.90;;;;;;4976532;28;20222;-80
2021/03/11 11:22:39;;;;;;;0.73;0.50;;;11.40;99.90;;;;;;4975478;28;20180;-80
2021/03/11 11:25:07;;;;;;;0.90;0.63;;;11.50;99.90;;;;;;4971341;28;20255;-81
2021/03/11 11:27:33;;;;;;;0.47;0.47;;;11.40;99.90;;;;;;4974906;28;20259;-80
2021/03/11 11:29:58;;;;;;;1.43;0.90;;;11.20;99.90;;;;;;4973886;28;20207;-81
2021/03/11 11:32:24;;;;;;;1.07;0.57;;;11.20;99.90;;;;;;4972102;28;21215;-79
2021/03/11 11:34:51;;;;;;;0.73;0.70;;;11.30;99.90;;;;;;4973969;28;20693;-79
2021/03/11 11:37:17;;;;;;;0.30;0.30;;;11.20;99.90;;;;;;4974987;28;20188;-81
2021/03/11 11:39:44;;;;;;;0.40;0.40;;;11.10;99.90;;;;;;4974490;28;20654;-81
2021/03/11 11:42:10;;;;;;;1.03;0.80;;;11.10;99.90;;;;;;4975929;28;20232;-82
2021/03/11 11:44:36;;;;;;;0.30;0.30;;;10.80;99.90;;;;;;4975955;28;20800;-81
2021/03/11 11:47:02;;;;;;;1.03;0.53;;;10.70;99.90;;;;;;4976889;28;20212;-81
2021/03/11 11:49:27;;;;;;;0.47;0.47;;;10.70;99.90;;;;;;4974406;28;20199;-81
2021/03/11 11:51:53;;;;;;;0.63;0.60;;;10.80;99.90;;;;;;4977163;28;20895;-79
2021/03/11 11:54:19;;;;;;;0.50;0.50;;;10.90;99.90;;;;;;4975165;28;20571;-79
2021/03/11 11:56:44;;;;;;;0.53;0.50;;;11.10;99.90;;;;;;4974295;28;21010;-78
2021/03/11 11:59:10;;;;;;;0.60;0.50;;;10.80;99.90;;;;;;4974625;28;20191;-81
2021/03/11 12:01:36;;;;;;;0.87;0.50;;;10.70;99.90;;;;;;4976062;28;20556;-79
2021/03/11 12:04:02;;;;;;;0.50;0.50;;;10.60;99.90;;;;;;4975066;28;20250;-80
2021/03/11 12:06:28;;;;;;;0.93;0.47;;;10.40;99.90;;;;;;5007731;28;20299;-78
2021/03/11 12:08:54;;;;;;;0.50;0.40;;;10.40;99.90;;;;;;4976286;28;20600;-80
2021/03/11 12:11:20;;;;;;;0.53;0.50;;;10.30;99.90;;;;;;4977904;28;21031;-81
2021/03/11 12:13:46;;;;;;;0.30;0.30;;;10.40;99.90;;;;;;4974135;28;20228;-81
2021/03/11 12:16:11;;;;;;;0.73;0.73;;;10.40;99.90;;;;;;4971615;28;20576;-79
2021/03/11 12:18:37;;;;;;;0.40;0.40;;;10.30;99.90;;;;;;4976132;28;20184;-82
2021/03/11 12:21:03;;;;;;;0.40;0.40;;;10.40;99.90;;;;;;4978501;28;20224;-79
2021/03/11 12:23:28;;;;;;;0.60;0.53;;;10.60;99.90;;;;;;4977983;28;20196;-80
2021/03/11 12:25:56;;;;;;;0.60;0.50;;;10.70;99.90;;;;;;4977223;28;20698;-81
2021/03/11 12:28:22;;;;;;;0.40;0.40;;;10.60;99.90;;;;;;4978320;28;20862;-80
2021/03/11 12:30:47;;;;;;;0.60;0.60;;;10.70;99.90;;;;;;4977620;28;20226;-81
2021/03/11 12:33:13;;;;;;;0.40;0.40;;;10.70;99.90;;;;;;4976323;28;20609;-80
2021/03/11 12:35:38;;;;;;;2.00;0.60;;;11.00;99.90;;;;;;4978350;28;20217;-80
2021/03/11 12:38:04;;;;;;;1.33;0.80;;;11.00;99.90;;;;;;4976703;28;20296;-80
2021/03/11 12:40:30;;;;;;;0.80;0.70;;;11.10;99.90;;;;;;4976006;28;20599;-81
2021/03/11 12:42:56;;;;;;;0.60;0.60;;;11.30;99.90;;;;;;4973378;28;20500;-80
2021/03/11 12:45:23;;;;;;;0.60;0.50;;;11.50;99.90;;;;;;4973782;28;20659;-79
2021/03/11 12:47:49;;;;;;;0.47;0.30;;;11.60;99.90;;;;;;4969631;28;20221;-79
2021/03/11 12:50:16;;;;;;;0.60;0.60;;;11.70;99.90;;;;;;4970843;28;20200;-81
2021/03/11 12:52:42;;;;;;;0.67;0.67;;;11.60;99.90;;;;;;4969735;28;20774;-81
2021/03/11 12:55:09;;;;;;;0.70;0.70;;;11.60;99.90;;;;;;4969974;28;20216;-81
2021/03/11 12:57:34;;;;;;;1.80;0.60;;;11.80;99.90;;;;;;4986512;28;20188;-79
2021/03/11 13:00:01;;;;;;;0.60;0.50;;;11.80;99.90;;;;;;4972267;28;20279;-80
2021/03/11 13:02:26;;;;;;;0.70;0.70;;;11.80;99.90;;;;;;4975739;28;20635;-79
2021/03/11 13:04:52;;;;;;;0.80;0.70;;;11.90;99.90;;;;;;4978361;28;20283;-80